Tegelen, Netherlands
Current Conditions -  °F | °C
As of 3:50 PM on Tuesday 21 Oct 2014 (Local Time) from EDLN Reporting Station
Rain Showers Rain Showers  
Wind Chill: 57°   Ceiling: 2600
Heat Index: 57°   Visibility: 4mi
Dew Point: 52°   Wind: 14mph
Humidity: 82%   Direction: 220°SW
Pressure: 29.5"   Gusts: NA
Location:  51.34°N, 6.14°E
Report Text: EDLN 211350Z 22012KT 170V270 6000 SHRA BKN026TCU 14/11 Q0999 RMK ATIS Q
Loading
Personal Weather Stations






























Interactive Weather Map
Tropical Storm Tracking
New forecast layout! Learn more

10-Day Weather Forecast

Advertisements
Track Severe Weather on mobile